createdAt,value
2023-06-09T00:01:15.944Z,100301.75
2023-06-09T00:04:27.809Z,100299.10
2023-06-09T00:07:34.729Z,100297.59
2023-06-09T00:10:38.819Z,100297.63
2023-06-09T00:13:42.945Z,100296.76
2023-06-09T00:16:47.819Z,100295.61
2023-06-09T00:19:53.673Z,100295.41
2023-06-09T00:22:59.999Z,100294.42
2023-06-09T00:26:04.035Z,100291.39
2023-06-09T00:29:08.023Z,100287.69
2023-06-09T00:32:13.286Z,100288.25
2023-06-09T00:35:18.061Z,100290.55
2023-06-09T00:38:22.073Z,100289.81
2023-06-09T00:41:26.998Z,100292.15
2023-06-09T00:44:30.958Z,100290.41
2023-06-09T00:47:35.007Z,100294.09
2023-06-09T00:50:41.055Z,100298.44
2023-06-09T00:53:45.104Z,100296.40
2023-06-09T00:56:49.567Z,100296.89
2023-06-09T00:59:53.825Z,100294.02
2023-06-09T01:03:02.341Z,100295.64
2023-06-09T01:06:31.555Z,100290.89
2023-06-09T01:09:39.902Z,100289.78
2023-06-09T01:12:59.310Z,100283.10
2023-06-09T01:16:14.340Z,100281.39
2023-06-09T01:19:32.850Z,100282.13
2023-06-09T01:22:46.615Z,100277.85
2023-06-09T01:25:53.434Z,100281.47
2023-06-09T01:28:59.590Z,100280.16
2023-06-09T01:32:06.300Z,100279.99
2023-06-09T01:35:11.023Z,100276.80
2023-06-09T01:38:16.761Z,100272.92
2023-06-09T01:41:22.079Z,100270.48
2023-06-09T01:44:26.036Z,100265.83
2023-06-09T01:47:30.115Z,100264.88
2023-06-09T01:50:42.227Z,100270.67
2023-06-09T01:54:00.658Z,100272.25
2023-06-09T01:57:15.886Z,100276.67
2023-06-09T02:00:23.457Z,100274.31
2023-06-09T02:03:31.106Z,100271.86
2023-06-09T02:06:37.259Z,100274.48
2023-06-09T02:09:41.844Z,100271.42
2023-06-09T02:12:45.838Z,100270.66
2023-06-09T02:15:50.244Z,100273.35
2023-06-09T02:18:55.032Z,100271.46
2023-06-09T02:21:59.267Z,100273.12
2023-06-09T02:25:07.806Z,100272.63
2023-06-09T02:28:12.324Z,100275.16
2023-06-09T02:31:17.298Z,100278.17
2023-06-09T02:34:23.756Z,100277.60
2023-06-09T02:37:31.291Z,100280.86
2023-06-09T02:40:35.317Z,100283.34
2023-06-09T02:43:39.448Z,100280.46
2023-06-09T02:46:45.535Z,100282.25
2023-06-09T02:49:49.613Z,100282.08
2023-06-09T02:52:53.747Z,100281.23
2023-06-09T02:55:58.360Z,100284.13
2023-06-09T02:59:04.138Z,100287.23
2023-06-09T03:02:09.286Z,100287.86
2023-06-09T03:05:13.492Z,100284.20
2023-06-09T03:08:17.656Z,100282.23
2023-06-09T03:11:22.136Z,100278.52
2023-06-09T03:14:26.272Z,100285.73
2023-06-09T03:17:30.591Z,100291.13
2023-06-09T03:20:37.551Z,100291.58
2023-06-09T03:23:45.039Z,100293.15
2023-06-09T03:26:50.070Z,100295.48
2023-06-09T03:29:54.942Z,100295.60
2023-06-09T03:32:59.600Z,100293.83
2023-06-09T03:36:04.746Z,100293.77
2023-06-09T03:39:09.433Z,100298.79
2023-06-09T03:42:13.994Z,100301.56
2023-06-09T03:45:18.212Z,100305.81
2023-06-09T03:48:23.117Z,100314.02
2023-06-09T03:51:27.875Z,100315.90
2023-06-09T03:54:32.628Z,100315.73
2023-06-09T03:57:36.682Z,100320.46
2023-06-09T04:00:41.979Z,100319.58
2023-06-09T04:03:46.262Z,100325.59
2023-06-09T04:06:50.777Z,100324.09
2023-06-09T04:09:57.388Z,100321.42
2023-06-09T04:13:01.501Z,100318.41
2023-06-09T04:16:05.667Z,100324.48
2023-06-09T04:19:09.847Z,100329.65
2023-06-09T04:22:14.117Z,100333.44
2023-06-09T04:25:18.899Z,100333.17
2023-06-09T04:28:23.453Z,100332.11
2023-06-09T04:31:35.228Z,100329.50
2023-06-09T04:34:41.277Z,100326.52
2023-06-09T04:37:50.282Z,100320.95
2023-06-09T04:40:59.052Z,100319.54
2023-06-09T04:44:07.035Z,100318.85
2023-06-09T04:47:18.921Z,100315.88
2023-06-09T04:50:23.315Z,100315.76
2023-06-09T04:53:28.284Z,100312.88
2023-06-09T04:56:32.809Z,100313.89
2023-06-09T04:59:36.860Z,100309.51
2023-06-09T05:02:41.340Z,100307.08
2023-06-09T05:05:46.063Z,100312.80
2023-06-09T05:08:51.930Z,100308.36
2023-06-09T05:11:56.930Z,100305.44
2023-06-09T05:15:01.756Z,100305.89
2023-06-09T05:18:09.534Z,100300.98
2023-06-09T05:21:14.233Z,100305.41
2023-06-09T05:24:18.399Z,100307.48
2023-06-09T05:27:23.235Z,100308.48
2023-06-09T05:30:27.654Z,100306.98
2023-06-09T05:33:31.893Z,100307.83
2023-06-09T05:36:37.700Z,100304.64
2023-06-09T05:39:43.191Z,100298.34
2023-06-09T05:42:48.105Z,100297.39
2023-06-09T05:45:52.140Z,100293.92
2023-06-09T05:48:56.155Z,100293.49
2023-06-09T05:52:02.263Z,100301.74
2023-06-09T05:55:06.653Z,100299.52
2023-06-09T05:58:10.608Z,100301.48
2023-06-09T06:01:18.320Z,100303.09
2023-06-09T06:04:22.435Z,100305.48
2023-06-09T06:07:26.943Z,100307.67
2023-06-09T06:10:31.066Z,100303.88
2023-06-09T06:13:35.028Z,100306.48
2023-06-09T06:16:39.145Z,100304.52
2023-06-09T06:19:43.313Z,100307.12
2023-06-09T06:22:47.746Z,100306.09
2023-06-09T06:25:52.458Z,100303.14
2023-06-09T06:28:56.449Z,100304.21
2023-06-09T06:32:01.901Z,100305.93
2023-06-09T06:35:06.991Z,100305.81
2023-06-09T06:38:10.941Z,100308.17
2023-06-09T06:41:15.272Z,100304.25
2023-06-09T06:44:20.449Z,100304.09
2023-06-09T06:47:24.493Z,100302.65
2023-06-09T06:50:28.621Z,100297.80
2023-06-09T06:53:33.318Z,100305.19
2023-06-09T06:56:38.046Z,100305.59
2023-06-09T06:59:42.015Z,100302.84
2023-06-09T07:02:50.185Z,100300.39
2023-06-09T07:05:55.109Z,100298.61
2023-06-09T07:09:01.223Z,100298.33
2023-06-09T07:12:08.638Z,100295.88
2023-06-09T07:15:12.885Z,100298.89
2023-06-09T07:18:17.093Z,100297.41
2023-06-09T07:21:21.232Z,100296.95
2023-06-09T07:24:25.688Z,100301.80
2023-06-09T07:27:29.748Z,100292.48
2023-06-09T07:30:33.753Z,100290.56
2023-06-09T07:33:38.839Z,100291.80
2023-06-09T07:36:42.847Z,100290.17
2023-06-09T07:39:46.959Z,100297.84
2023-06-09T07:42:51.515Z,100292.68
2023-06-09T07:45:55.886Z,100287.14
2023-06-09T07:48:59.902Z,100286.02
2023-06-09T07:52:20.483Z,100282.55
2023-06-09T07:55:28.219Z,100283.02
2023-06-09T07:58:32.199Z,100282.20
2023-06-09T08:01:38.530Z,100276.15
2023-06-09T08:04:42.832Z,100275.64
2023-06-09T08:07:47.148Z,100280.46
2023-06-09T08:10:51.171Z,100279.30
2023-06-09T08:13:55.312Z,100278.40
2023-06-09T08:16:59.302Z,100280.30
2023-06-09T08:20:07.908Z,100278.82
2023-06-09T08:23:12.915Z,100276.35
2023-06-09T08:26:17.429Z,100277.51
2023-06-09T08:29:21.728Z,100278.52
2023-06-09T08:32:26.748Z,100278.30
2023-06-09T08:35:33.347Z,100277.21
2023-06-09T08:38:37.507Z,100275.48
2023-06-09T08:41:44.374Z,100275.40
2023-06-09T08:44:50.501Z,100276.41
2023-06-09T08:47:56.397Z,100270.41
2023-06-09T08:51:01.517Z,100268.54
2023-06-09T08:54:08.040Z,100273.70
2023-06-09T08:57:12.503Z,100272.48
2023-06-09T09:00:17.745Z,100274.35
2023-06-09T09:03:21.989Z,100267.86
2023-06-09T09:06:28.018Z,100271.27
2023-06-09T09:09:32.069Z,100272.86
2023-06-09T09:12:53.371Z,100276.85
2023-06-09T09:16:01.847Z,100268.66
2023-06-09T09:19:06.774Z,100270.80
2023-06-09T09:22:11.675Z,100269.74
2023-06-09T09:25:27.403Z,100268.05
2023-06-09T09:28:41.833Z,100267.17
2023-06-09T09:31:46.159Z,100262.44
2023-06-09T09:34:50.996Z,100263.27
2023-06-09T09:37:54.977Z,100263.43
2023-06-09T09:41:01.206Z,100260.62
2023-06-09T09:44:05.275Z,100257.59
2023-06-09T09:47:13.580Z,100254.16
2023-06-09T09:50:24.943Z,100251.96
2023-06-09T09:53:29.022Z,100251.88
2023-06-09T09:56:33.740Z,100251.10
2023-06-09T09:59:38.280Z,100247.08
2023-06-09T10:02:46.733Z,100250.16
2023-06-09T10:05:51.853Z,100247.83
2023-06-09T10:08:57.343Z,100247.58
2023-06-09T10:12:01.883Z,100242.14
2023-06-09T10:15:09.885Z,100242.69
2023-06-09T10:18:14.379Z,100239.97
2023-06-09T10:21:19.276Z,100237.41
2023-06-09T10:24:25.158Z,100230.40
2023-06-09T10:27:30.365Z,100224.89
2023-06-09T10:30:35.684Z,100216.98
2023-06-09T10:33:44.693Z,100215.73
2023-06-09T10:36:54.581Z,100212.34
2023-06-09T10:40:17.662Z,100206.13
2023-06-09T10:43:47.595Z,100204.27
2023-06-09T10:46:54.498Z,100199.23
2023-06-09T10:49:58.818Z,100198.02
2023-06-09T10:53:03.699Z,100193.67
2023-06-09T10:56:33.455Z,100189.50
2023-06-09T10:59:37.405Z,100184.58
2023-06-09T11:02:42.953Z,100184.54
2023-06-09T11:05:59.943Z,100183.70
2023-06-09T11:09:10.723Z,100183.25
2023-06-09T11:12:40.188Z,100178.45
2023-06-09T11:15:59.204Z,100177.98
2023-06-09T11:19:24.774Z,100180.89
2023-06-09T11:22:30.419Z,100178.70
2023-06-09T11:25:35.198Z,100174.65
2023-06-09T11:28:42.793Z,100174.41
2023-06-09T11:31:50.491Z,100166.90
2023-06-09T11:34:57.004Z,100171.04
2023-06-09T11:38:01.808Z,100174.45
2023-06-09T11:41:11.711Z,100170.67
2023-06-09T11:44:16.004Z,100165.11
2023-06-09T11:47:25.871Z,100166.64
2023-06-09T11:50:40.943Z,100166.21
2023-06-09T11:53:49.231Z,100161.95
2023-06-09T11:56:53.675Z,100157.84
2023-06-09T11:59:58.255Z,100152.61
2023-06-09T12:03:04.157Z,100152.21
2023-06-09T12:06:09.428Z,100148.67
2023-06-09T12:09:22.770Z,100151.56
2023-06-09T12:12:27.052Z,100152.66
2023-06-09T12:15:32.001Z,100160.95
2023-06-09T12:18:35.986Z,100169.24
2023-06-09T12:21:39.971Z,100179.65
2023-06-09T12:24:45.247Z,100191.02
2023-06-09T12:27:49.314Z,100195.05
2023-06-09T12:30:55.768Z,100194.60
2023-06-09T12:34:01.633Z,100191.23
2023-06-09T12:37:07.620Z,100200.26
2023-06-09T12:40:13.463Z,100199.91
2023-06-09T12:43:25.592Z,100200.36
2023-06-09T12:46:34.970Z,100205.22
2023-06-09T12:49:39.003Z,100203.64
2023-06-09T12:52:43.031Z,100208.42
2023-06-09T12:55:47.146Z,100202.64
2023-06-09T12:58:51.281Z,100203.20
2023-06-09T13:01:55.531Z,100195.64
2023-06-09T13:04:59.722Z,100189.11
2023-06-09T13:08:05.984Z,100183.94
2023-06-09T13:11:12.674Z,100183.61
2023-06-09T13:14:16.895Z,100176.10
2023-06-09T13:17:21.127Z,100178.48
2023-06-09T13:20:25.193Z,100174.13
2023-06-09T13:23:29.455Z,100177.42
2023-06-09T13:26:33.521Z,100172.63
2023-06-09T13:29:37.776Z,100176.90
2023-06-09T13:32:42.434Z,100169.66
2023-06-09T13:35:46.930Z,100167.27
2023-06-09T13:38:50.940Z,100155.42
2023-06-09T13:41:54.921Z,100153.73
2023-06-09T13:44:58.947Z,100155.62
2023-06-09T13:48:03.019Z,100157.40
2023-06-09T13:51:07.175Z,100156.86
2023-06-09T13:54:11.182Z,100149.66
2023-06-09T13:57:15.767Z,100146.23
2023-06-09T14:00:20.020Z,100141.98
2023-06-09T14:03:24.646Z,100138.14
2023-06-09T14:06:28.880Z,100138.20
2023-06-09T14:09:32.971Z,100133.20
2023-06-09T14:12:38.704Z,100135.54
2023-06-09T14:15:42.738Z,100136.57
2023-06-09T14:18:46.954Z,100140.09
2023-06-09T14:21:50.949Z,100137.47
2023-06-09T14:24:54.917Z,100133.58
2023-06-09T14:27:58.966Z,100122.73
2023-06-09T14:31:02.986Z,100117.71
2023-06-09T14:34:07.316Z,100114.48
2023-06-09T14:37:11.335Z,100114.20
2023-06-09T14:40:16.262Z,100111.44
2023-06-09T14:43:20.407Z,100111.42
2023-06-09T14:46:24.874Z,100115.08
2023-06-09T14:49:28.921Z,100111.38
2023-06-09T14:52:33.293Z,100115.31
2023-06-09T14:55:48.749Z,100119.38
2023-06-09T14:58:52.723Z,100124.37
2023-06-09T15:01:56.781Z,100128.58
2023-06-09T15:05:00.846Z,100127.54
2023-06-09T15:08:05.863Z,100125.39
2023-06-09T15:11:09.861Z,100125.88
2023-06-09T15:14:13.855Z,100120.39
2023-06-09T15:17:17.822Z,100120.52
2023-06-09T15:20:25.620Z,100122.01
2023-06-09T15:23:29.748Z,100125.94
2023-06-09T15:26:37.047Z,100129.02
2023-06-09T15:29:41.080Z,100126.04
2023-06-09T15:32:45.092Z,100126.96
2023-06-09T15:35:54.218Z,100127.23
2023-06-09T15:38:58.714Z,100125.14
2023-06-09T15:42:03.027Z,100130.41
2023-06-09T15:45:07.684Z,100126.31
2023-06-09T15:48:13.062Z,100123.44
2023-06-09T15:51:17.038Z,100120.00
2023-06-09T15:54:21.031Z,100118.98
2023-06-09T15:57:25.062Z,100120.70
2023-06-09T16:00:29.624Z,100118.40
2023-06-09T16:03:35.278Z,100124.42
2023-06-09T16:06:40.822Z,100132.35
2023-06-09T16:09:44.834Z,100136.45
2023-06-09T16:12:48.888Z,100138.91
2023-06-09T16:15:52.905Z,100135.40
2023-06-09T16:18:57.118Z,100134.30
2023-06-09T16:22:01.110Z,100140.86
2023-06-09T16:25:05.906Z,100140.97
2023-06-09T16:28:13.008Z,100142.92
2023-06-09T16:31:17.154Z,100146.50
2023-06-09T16:34:21.192Z,100146.92
2023-06-09T16:37:25.553Z,100153.46
2023-06-09T16:40:29.818Z,100156.38
2023-06-09T16:43:35.181Z,100160.73
2023-06-09T16:46:39.206Z,100163.00
2023-06-09T16:49:43.139Z,100161.64
2023-06-09T16:52:47.230Z,100162.36
2023-06-09T16:55:51.298Z,100163.34
2023-06-09T16:58:55.509Z,100163.60
2023-06-09T17:01:59.503Z,100166.02
2023-06-09T17:05:03.847Z,100164.92
2023-06-09T17:08:07.894Z,100167.42
2023-06-09T17:11:11.915Z,100167.84
2023-06-09T17:14:17.722Z,100168.80
2023-06-09T17:17:24.585Z,100167.52
2023-06-09T17:20:29.672Z,100168.98
2023-06-09T17:23:33.691Z,100161.10
2023-06-09T17:26:37.785Z,100156.27
2023-06-09T17:29:41.779Z,100154.50
2023-06-09T17:32:46.579Z,100157.58
2023-06-09T17:35:51.814Z,100160.23
2023-06-09T17:38:56.096Z,100156.37
2023-06-09T17:42:03.255Z,100151.21
2023-06-09T17:45:09.581Z,100151.06
2023-06-09T17:48:14.119Z,100156.54
2023-06-09T17:51:18.094Z,100159.75
2023-06-09T17:54:22.132Z,100162.73
2023-06-09T17:57:26.103Z,100162.56
2023-06-09T18:00:30.055Z,100164.91
2023-06-09T18:03:36.349Z,100164.33
2023-06-09T18:06:46.581Z,100164.63
2023-06-09T18:09:50.815Z,100170.98
2023-06-09T18:12:54.796Z,100173.63
2023-06-09T18:15:58.889Z,100170.80
2023-06-09T18:19:03.158Z,100167.17
2023-06-09T18:22:07.254Z,100167.10
2023-06-09T18:25:11.388Z,100173.27
2023-06-09T18:28:16.668Z,100170.05
2023-06-09T18:31:20.787Z,100172.05
2023-06-09T18:34:24.775Z,100172.84
2023-06-09T18:37:29.002Z,100179.71
2023-06-09T18:40:32.993Z,100184.52
2023-06-09T18:43:39.073Z,100185.86
2023-06-09T18:46:43.561Z,100188.73
2023-06-09T18:49:47.799Z,100187.25
2023-06-09T18:52:52.886Z,100193.65
2023-06-09T18:55:57.485Z,100199.57
2023-06-09T18:59:01.744Z,100203.90
2023-06-09T19:02:08.139Z,100208.79
2023-06-09T19:05:12.338Z,100211.66
2023-06-09T19:08:16.917Z,100215.02
2023-06-09T19:11:22.191Z,100218.36
2023-06-09T19:14:26.373Z,100219.37
2023-06-09T19:17:31.269Z,100221.17
2023-06-09T19:20:35.477Z,100222.42
2023-06-09T19:23:39.700Z,100220.64
2023-06-09T19:26:43.628Z,100219.18
2023-06-09T19:29:47.654Z,100219.21
2023-06-09T19:32:51.661Z,100216.61
2023-06-09T19:35:55.926Z,100213.61
2023-06-09T19:38:59.979Z,100213.02
2023-06-09T19:42:04.842Z,100215.02
2023-06-09T19:45:09.921Z,100217.09
2023-06-09T19:48:14.364Z,100217.64
2023-06-09T19:51:18.447Z,100218.42
2023-06-09T19:54:23.214Z,100218.66
2023-06-09T19:57:27.164Z,100219.53
2023-06-09T20:00:31.462Z,100223.94
2023-06-09T20:03:35.510Z,100224.96
2023-06-09T20:06:40.430Z,100226.61
2023-06-09T20:09:44.421Z,100227.27
2023-06-09T20:12:48.417Z,100231.41
2023-06-09T20:15:52.427Z,100235.25
2023-06-09T20:18:56.374Z,100236.70
2023-06-09T20:22:00.456Z,100229.39
2023-06-09T20:25:05.668Z,100236.18
2023-06-09T20:28:09.704Z,100233.79
2023-06-09T20:31:14.195Z,100235.11
2023-06-09T20:34:18.263Z,100236.08
2023-06-09T20:37:23.068Z,100235.33
2023-06-09T20:40:27.134Z,100240.83
2023-06-09T20:43:31.370Z,100243.48
2023-06-09T20:46:35.941Z,100246.02
2023-06-09T20:49:40.389Z,100247.73
2023-06-09T20:52:45.352Z,100254.14
2023-06-09T20:55:52.424Z,100258.93
2023-06-09T20:58:56.409Z,100261.22
2023-06-09T21:02:02.213Z,100261.23
2023-06-09T21:05:06.757Z,100261.31
2023-06-09T21:08:11.807Z,100263.16
2023-06-09T21:11:16.418Z,100262.02
2023-06-09T21:14:20.475Z,100262.48
2023-06-09T21:17:24.542Z,100267.58
2023-06-09T21:20:34.209Z,100265.08
2023-06-09T21:23:38.798Z,100268.24
2023-06-09T21:26:42.789Z,100271.34
2023-06-09T21:29:46.787Z,100268.11
2023-06-09T21:32:50.874Z,100266.64
2023-06-09T21:35:55.423Z,100271.28
2023-06-09T21:38:59.655Z,100267.15
2023-06-09T21:42:04.523Z,100270.36
2023-06-09T21:45:09.578Z,100269.88
2023-06-09T21:48:15.814Z,100265.89
2023-06-09T21:51:20.103Z,100261.09
2023-06-09T21:54:24.105Z,100257.24
2023-06-09T21:57:28.100Z,100251.21
2023-06-09T22:00:32.311Z,100249.44
2023-06-09T22:03:36.316Z,100249.10
2023-06-09T22:06:40.324Z,100247.44
2023-06-09T22:09:44.352Z,100252.38
2023-06-09T22:12:48.408Z,100252.48
2023-06-09T22:15:52.601Z,100262.46
2023-06-09T22:18:56.592Z,100261.90
2023-06-09T22:22:00.590Z,100266.02
2023-06-09T22:25:05.346Z,100262.93
2023-06-09T22:28:09.616Z,100262.95
2023-06-09T22:31:14.832Z,100267.86
2023-06-09T22:34:19.152Z,100267.40
2023-06-09T22:37:23.136Z,100267.46
2023-06-09T22:40:27.203Z,100264.81
2023-06-09T22:43:31.196Z,100262.86
2023-06-09T22:46:35.312Z,100261.48
2023-06-09T22:50:02.724Z,100261.45
2023-06-09T22:53:08.262Z,100258.70
2023-06-09T22:56:13.509Z,100266.71
2023-06-09T22:59:17.510Z,100263.45
2023-06-09T23:02:23.933Z,100265.88
2023-06-09T23:05:29.367Z,100268.85
2023-06-09T23:08:34.079Z,100265.59
2023-06-09T23:11:38.890Z,100271.04
2023-06-09T23:14:43.128Z,100272.39
2023-06-09T23:17:47.331Z,100271.48
2023-06-09T23:20:51.503Z,100267.92
2023-06-09T23:23:56.574Z,100266.69
2023-06-09T23:27:00.638Z,100265.80
2023-06-09T23:30:07.389Z,100270.90
2023-06-09T23:33:13.766Z,100271.88
2023-06-09T23:36:20.084Z,100272.79
2023-06-09T23:39:24.089Z,100268.84
2023-06-09T23:42:28.359Z,100267.48
2023-06-09T23:45:32.231Z,100263.05
2023-06-09T23:48:36.679Z,100266.80
2023-06-09T23:51:40.753Z,100264.11
2023-06-09T23:54:44.889Z,100264.45
2023-06-09T23:57:49.582Z,100260.55
